Aérodrome :
LOGIN :

S'inscrire | Disclaimer

   EN    FR    IT 

 










Légende :    VFR   VFR Marginal   IFR   IFR Intensif   IFR Très Intensif
Visi : 
Plafond : 
>= 8 km
>= 3000ft
5 à 8 km
1000 à 3000 ft
1500m à 5 km
500 à 1000 ft
800 à 1500m
200 à 500 ft
< 800m
< 200 ft
Symboles :   Orages  Brouillard  Fortes neiges  Fortes précipitations  Vent > 20 kt
SIGMETs :   Divers  Orages  Givrage  Turbulence  Onde Orograph.  Cendres Volcan.






- Altitude de l'aérodrome : 433 ft


LFOC - Chateaudun

DERNIER METAR :
  • 201030Z AUTO 11003KT 020V180 CAVOK 17/05 Q1016 NOSIG

METARs EXPIRÉS :
  • 201000Z AUTO VRB03KT CAVOK 16/06 Q1016 NOSIG
  • 200930Z AUTO VRB03KT CAVOK 14/05 Q1016 NOSIG
  • 200900Z AUTO VRB03KT CAVOK 13/05 Q1016 NOSIG
  • 200830Z AUTO 08004KT 040V100 CAVOK 12/05 Q1016 NOSIG
  • 200800Z AUTO 02003KT CAVOK 10/05 Q1017 NOSIG

TAF TAF LFOC
Valide du 20 à 09h jusqu'au 21 à 09h UTC


200800Z 2009/2109 03003KT CAVOK
TEMPO 2013/2018 04013KT



MET'MAP, la Météo Aéronautique d'un coup d'oeil ! - Copyright ORBIFLY Décembre 2007 - Disclaimer

ORBIFLY MET'MAP TEAM :

Programmation & Développement : Alexandra Zaïnal
Sur une idée originale de : Baudouin d'Aumeries
Assistance à la programmation : Marc-Olivier Méhu
Soutien technique & logistique : Manuel Goepfert

Contact : metmap@orbifly.com




SOURCES & CREDITS :

   NOAA